createdAt,value
2019-04-27T00:02:22.537Z,9.80
2019-04-27T00:09:11.576Z,9.70
2019-04-27T00:16:10.903Z,9.70
2019-04-27T00:23:08.340Z,9.80
2019-04-27T00:29:53.632Z,9.90
2019-04-27T00:36:53.561Z,9.90
2019-04-27T00:43:39.293Z,9.90
2019-04-27T00:50:24.527Z,9.90
2019-04-27T00:57:25.760Z,9.80
2019-04-27T01:04:18.323Z,9.60
2019-04-27T01:11:03.393Z,9.40
2019-04-27T01:17:49.055Z,9.20
2019-04-27T01:24:34.339Z,9.00
2019-04-27T01:31:21.156Z,8.70
2019-04-27T01:38:06.383Z,8.50
2019-04-27T01:44:51.451Z,8.30
2019-04-27T01:51:36.623Z,8.20
2019-04-27T01:58:21.883Z,8.20
2019-04-27T02:05:14.928Z,8.10
2019-04-27T02:12:00.036Z,8.20
2019-04-27T02:18:46.193Z,8.10
2019-04-27T02:25:31.488Z,8.00
2019-04-27T02:32:20.188Z,7.90
2019-04-27T02:39:09.307Z,7.80
2019-04-27T02:45:53.917Z,7.70
2019-04-27T02:52:40.703Z,7.80
2019-04-27T02:59:25.713Z,7.80
2019-04-27T03:06:10.842Z,7.70
2019-04-27T03:13:12.542Z,7.70
2019-04-27T03:19:59.888Z,7.70
2019-04-27T03:26:46.788Z,7.60
2019-04-27T03:33:32.812Z,7.50
2019-04-27T03:40:20.325Z,7.50
2019-04-27T03:47:05.294Z,7.50
2019-04-27T03:54:00.160Z,7.40
2019-04-27T04:00:45.062Z,7.20
2019-04-27T04:07:31.100Z,7.20
2019-04-27T04:14:20.130Z,7.20
2019-04-27T04:21:04.851Z,7.20
2019-04-27T04:27:50.695Z,7.30
2019-04-27T04:34:36.005Z,7.30
2019-04-27T04:41:30.350Z,7.50
2019-04-27T04:48:16.783Z,7.60
2019-04-27T04:55:03.009Z,8.00
2019-04-27T05:01:49.936Z,8.30
2019-04-27T05:08:34.855Z,9.20
2019-04-27T05:15:20.711Z,10.10
2019-04-27T05:22:05.776Z,10.50
2019-04-27T05:28:50.827Z,11.10
2019-04-27T05:35:36.031Z,16.30
2019-04-27T05:42:21.011Z,18.20
2019-04-27T05:49:09.394Z,14.50
2019-04-27T05:55:54.385Z,17.50
2019-04-27T06:02:39.903Z,22.10
2019-04-27T06:09:24.988Z,26.70
2019-04-27T06:16:10.087Z,23.50
2019-04-27T06:22:55.224Z,28.30
2019-04-27T06:29:40.893Z,32.40
2019-04-27T06:36:28.740Z,31.40
2019-04-27T06:43:14.026Z,29.20
2019-04-27T06:49:59.002Z,28.80
2019-04-27T06:56:44.009Z,30.10
2019-04-27T07:03:29.117Z,31.10
2019-04-27T07:10:14.431Z,30.10
2019-04-27T07:16:59.662Z,28.90
2019-04-27T07:23:59.786Z,28.00
2019-04-27T07:30:45.113Z,30.20
2019-04-27T07:37:30.073Z,30.50
2019-04-27T07:44:19.829Z,29.80
2019-04-27T07:51:04.968Z,25.80
2019-04-27T07:57:49.934Z,25.70
2019-04-27T08:04:35.000Z,23.20
2019-04-27T08:11:20.121Z,21.40
2019-04-27T08:18:05.862Z,22.00
2019-04-27T08:24:51.862Z,25.70
2019-04-27T08:31:41.368Z,28.10
2019-04-27T08:38:28.915Z,26.70
2019-04-27T08:45:14.037Z,24.40
2019-04-27T08:52:01.753Z,23.50
2019-04-27T08:58:45.860Z,21.40
2019-04-27T09:05:30.920Z,19.20
2019-04-27T09:12:23.398Z,18.50
2019-04-27T09:19:26.199Z,17.90
2019-04-27T09:26:11.332Z,17.40
2019-04-27T09:32:56.683Z,16.90
2019-04-27T09:39:41.698Z,17.00
2019-04-27T09:46:27.238Z,16.90
2019-04-27T09:53:12.376Z,16.90
2019-04-27T09:59:57.411Z,16.40
2019-04-27T10:06:42.489Z,16.10
2019-04-27T10:13:27.742Z,15.20
2019-04-27T10:20:14.301Z,14.60
2019-04-27T10:26:59.363Z,15.40
2019-04-27T10:33:45.880Z,15.80
2019-04-27T10:40:30.892Z,14.80
2019-04-27T10:47:16.031Z,15.00
2019-04-27T10:54:01.048Z,16.30
2019-04-27T11:00:47.698Z,17.00
2019-04-27T11:07:34.217Z,16.80
2019-04-27T11:14:19.692Z,15.60
2019-04-27T11:21:05.888Z,16.10
2019-04-27T11:27:51.035Z,16.00
2019-04-27T11:34:55.726Z,15.70
2019-04-27T11:41:41.263Z,16.10
2019-04-27T11:48:26.571Z,16.40
2019-04-27T11:55:13.771Z,17.00
2019-04-27T12:01:58.803Z,17.20
2019-04-27T12:08:45.834Z,16.50
2019-04-27T12:15:30.971Z,17.00
2019-04-27T12:22:16.283Z,16.80
2019-04-27T12:29:03.463Z,17.50
2019-04-27T12:35:49.181Z,17.70
2019-04-27T12:42:36.244Z,18.20
2019-04-27T12:49:20.989Z,18.20
2019-04-27T12:56:16.696Z,19.40
2019-04-27T13:03:01.800Z,19.20
2019-04-27T13:09:47.706Z,19.00
2019-04-27T13:16:32.631Z,19.20
2019-04-27T13:23:17.622Z,18.60
2019-04-27T13:30:04.893Z,18.30
2019-04-27T13:36:49.267Z,18.20
2019-04-27T13:43:35.819Z,16.70
2019-04-27T13:50:25.328Z,16.80
2019-04-27T13:57:11.773Z,17.00
2019-04-27T14:03:56.800Z,16.60
2019-04-27T14:10:41.803Z,16.50
2019-04-27T14:17:26.778Z,17.10
2019-04-27T14:24:12.039Z,17.10
2019-04-27T14:30:58.996Z,16.70
2019-04-27T14:37:44.260Z,16.20
2019-04-27T14:44:29.346Z,16.00
2019-04-27T14:51:14.558Z,16.10
2019-04-27T14:57:59.665Z,14.50
2019-04-27T15:04:47.068Z,11.80
2019-04-27T15:11:31.758Z,11.50
2019-04-27T15:18:19.606Z,11.90
2019-04-27T15:25:11.899Z,12.80
2019-04-27T15:32:00.403Z,13.20
2019-04-27T15:38:53.939Z,13.40
2019-04-27T15:45:39.312Z,13.70
2019-04-27T15:52:25.437Z,13.90
2019-04-27T15:59:11.353Z,13.40
2019-04-27T16:05:56.503Z,13.20
2019-04-27T16:12:54.609Z,13.30
2019-04-27T16:19:28.784Z,13.60
2019-04-27T16:26:15.330Z,13.30
2019-04-27T16:33:00.978Z,13.30
2019-04-27T16:39:47.845Z,13.10
2019-04-27T16:46:34.895Z,13.00
2019-04-27T16:53:20.461Z,12.70
2019-04-27T17:00:09.424Z,12.60
2019-04-27T17:06:54.816Z,12.40
2019-04-27T17:13:44.279Z,12.30
2019-04-27T17:20:29.899Z,12.20
2019-04-27T17:27:24.068Z,12.00
2019-04-27T17:34:04.680Z,12.10
2019-04-27T17:40:51.777Z,12.00
2019-04-27T17:47:38.753Z,12.00
2019-04-27T17:54:24.039Z,11.90
2019-04-27T18:01:14.191Z,10.70
2019-04-27T18:07:58.003Z,9.20
2019-04-27T18:14:43.348Z,8.80
2019-04-27T18:21:30.195Z,8.70
2019-04-27T18:28:19.009Z,8.60
2019-04-27T18:35:06.026Z,8.60
2019-04-27T18:41:54.278Z,8.60
2019-04-27T18:48:44.736Z,8.60
2019-04-27T18:55:29.980Z,8.60
2019-04-27T19:02:15.120Z,8.70
2019-04-27T19:09:00.187Z,8.90
2019-04-27T19:15:45.545Z,9.00
2019-04-27T19:22:30.722Z,9.00
2019-04-27T19:29:20.327Z,9.00
2019-04-27T19:36:05.569Z,8.50
2019-04-27T19:42:50.696Z,7.80
2019-04-27T19:49:35.853Z,7.60
2019-04-27T19:56:21.362Z,7.60
2019-04-27T20:03:08.754Z,7.50
2019-04-27T20:09:58.534Z,7.40
2019-04-27T20:23:54.802Z,7.30
2019-04-27T20:30:41.584Z,7.20
2019-04-27T20:37:26.815Z,7.10
2019-04-27T20:44:12.846Z,7.30
2019-04-27T20:50:58.055Z,7.40
2019-04-27T20:57:43.185Z,7.50
2019-04-27T21:04:32.661Z,7.60
2019-04-27T21:11:17.855Z,7.70
2019-04-27T21:18:02.949Z,7.70
2019-04-27T21:24:47.988Z,7.80
2019-04-27T21:31:33.137Z,7.80
2019-04-27T21:38:18.518Z,7.80
2019-04-27T21:45:04.484Z,7.80
2019-04-27T21:52:14.251Z,7.60
2019-04-27T21:58:56.267Z,7.60
2019-04-27T22:05:41.864Z,7.40
2019-04-27T22:12:27.280Z,7.30
2019-04-27T22:19:12.657Z,7.00
2019-04-27T22:25:57.869Z,7.10
2019-04-27T22:32:42.985Z,7.10
2019-04-27T22:39:32.295Z,7.20
2019-04-27T22:46:18.907Z,7.20
2019-04-27T22:53:04.006Z,7.10
2019-04-27T22:59:50.696Z,6.80
2019-04-27T23:06:35.800Z,6.60
2019-04-27T23:13:21.378Z,6.30
2019-04-27T23:20:09.354Z,6.10
2019-04-27T23:26:55.172Z,5.80
2019-04-27T23:33:42.237Z,5.60
2019-04-27T23:40:27.711Z,5.50
2019-04-27T23:47:12.580Z,5.40
2019-04-27T23:53:57.670Z,5.50
